Time;durP1;ratioP1;P1;durP2;ratioP2;P2;SDS_P1;SDS_P2;PMS_P1;PMS_P2;Temp;Humidity;BMP_temperature;BMP_pressure;BME280_temperature;BME280_humidity;BME280_pressure;Samples;Min_cycle;Max_cycle;Signal;HPM_P1;HPM_P2
2023/01/20 00:01:21;;;;;;;8.30;5.70;;;;;;;0.00;100.00;97442.06;5053821;28;20229;-72
2023/01/20 00:03:49;;;;;;;8.00;6.00;;;;;;;0.01;100.00;97440.28;5053493;28;20213;-72
2023/01/20 00:06:15;;;;;;;9.47;6.23;;;;;;;0.00;100.00;97449.91;5053469;28;20547;-73
2023/01/20 00:08:42;;;;;;;11.37;6.57;;;;;;;0.12;100.00;97447.72;5053349;28;20213;-73
2023/01/20 00:11:11;;;;;;;7.73;5.70;;;;;;;0.19;100.00;97454.72;5053348;28;20293;-72
2023/01/20 00:13:38;;;;;;;8.83;6.30;;;;;;;0.17;100.00;97462.91;5053183;28;20239;-72
2023/01/20 00:16:09;;;;;;;8.73;6.77;;;;;;;0.13;100.00;97466.84;5053350;28;20211;-72
2023/01/20 00:18:36;;;;;;;8.40;6.23;;;;;;;0.16;100.00;97459.47;5053343;28;20212;-72
2023/01/20 00:21:05;;;;;;;9.60;6.97;;;;;;;0.30;100.00;97465.81;5053211;28;20205;-72
2023/01/20 00:23:32;;;;;;;8.77;5.87;;;;;;;0.21;100.00;97459.00;5053217;28;20221;-72
2023/01/20 00:25:58;;;;;;;7.37;6.10;;;;;;;0.12;100.00;97462.63;5053248;28;20588;-73
2023/01/20 00:28:25;;;;;;;8.23;6.50;;;;;;;0.03;100.00;97466.25;5053193;28;20212;-72
2023/01/20 00:30:51;;;;;;;9.67;6.43;;;;;;;-0.01;100.00;97466.56;5053155;28;20213;-72
2023/01/20 00:33:17;;;;;;;9.63;6.37;;;;;;;0.03;100.00;97471.47;5053181;28;20220;-73
2023/01/20 00:35:44;;;;;;;7.50;6.03;;;;;;;-0.06;100.00;97473.25;5053175;28;20227;-72
2023/01/20 00:38:10;;;;;;;10.23;7.00;;;;;;;0.08;100.00;97480.41;5053085;28;20207;-72
2023/01/20 00:40:36;;;;;;;10.47;6.40;;;;;;;0.12;100.00;97473.88;5053120;28;20202;-73
2023/01/20 00:43:03;;;;;;;8.53;6.97;;;;;;;0.21;100.00;97487.75;5052914;28;20233;-72
2023/01/20 00:45:29;;;;;;;8.33;6.67;;;;;;;0.24;100.00;97477.75;5053310;28;20209;-72
2023/01/20 00:47:55;;;;;;;12.33;7.30;;;;;;;0.27;100.00;97485.25;5053058;28;20211;-73
2023/01/20 00:50:22;;;;;;;10.93;7.67;;;;;;;0.27;100.00;97492.28;5053035;28;20208;-73
2023/01/20 00:52:48;;;;;;;9.33;7.10;;;;;;;0.22;100.00;97486.75;5053163;28;20244;-73
2023/01/20 00:55:14;;;;;;;11.83;7.80;;;;;;;0.21;100.00;97485.13;5056338;28;20574;-72
2023/01/20 00:57:41;;;;;;;11.37;6.97;;;;;;;0.17;100.00;97487.25;5056779;28;20205;-72
2023/01/20 01:00:08;;;;;;;8.93;6.50;;;;;;;0.20;100.00;97489.53;5057479;28;20216;-72
2023/01/20 01:02:38;;;;;;;9.23;7.13;;;;;;;0.19;100.00;97493.94;5056453;28;20711;-72
2023/01/20 01:05:05;;;;;;;9.70;7.63;;;;;;;0.21;100.00;97496.38;5056696;28;20194;-72
2023/01/20 01:07:32;;;;;;;10.70;7.40;;;;;;;0.17;100.00;97495.91;5056577;28;20201;-72
2023/01/20 01:09:58;;;;;;;9.50;7.33;;;;;;;0.14;100.00;97500.66;5056499;28;20205;-72
2023/01/20 01:12:24;;;;;;;9.27;7.47;;;;;;;0.16;100.00;97503.91;5056163;28;20239;-72
2023/01/20 01:14:51;;;;;;;10.37;7.23;;;;;;;0.17;100.00;97509.97;5057247;28;20205;-72
2023/01/20 01:17:17;;;;;;;8.13;7.20;;;;;;;0.21;100.00;97511.25;5056391;28;20283;-72
2023/01/20 01:19:43;;;;;;;7.67;6.57;;;;;;;0.19;100.00;97514.84;5056260;28;20205;-72
2023/01/20 01:22:10;;;;;;;7.93;6.73;;;;;;;0.17;100.00;97508.97;5056151;28;20225;-72
2023/01/20 01:24:36;;;;;;;8.80;6.70;;;;;;;0.09;100.00;97511.59;5056291;28;20283;-72
2023/01/20 01:27:03;;;;;;;12.33;7.00;;;;;;;0.14;100.00;97508.50;5056256;28;20201;-72
2023/01/20 01:29:29;;;;;;;8.20;6.73;;;;;;;0.10;100.00;97518.44;5056176;28;20202;-72
2023/01/20 01:31:56;;;;;;;7.40;6.53;;;;;;;0.14;100.00;97521.56;5055777;28;20229;-73
2023/01/20 01:34:22;;;;;;;9.07;6.83;;;;;;;0.12;100.00;97536.59;5055989;28;20220;-72
2023/01/20 01:36:48;;;;;;;8.17;7.00;;;;;;;0.13;100.00;97532.97;5055863;28;20575;-72
2023/01/20 01:39:15;;;;;;;11.80;7.20;;;;;;;0.14;100.00;97532.81;5055711;28;20684;-72
2023/01/20 01:41:41;;;;;;;9.70;7.57;;;;;;;0.10;100.00;97531.50;5055918;28;20563;-72
2023/01/20 01:44:13;;;;;;;11.33;8.00;;;;;;;0.18;100.00;97539.34;5055580;28;20700;-72
2023/01/20 01:46:40;;;;;;;9.07;7.23;;;;;;;0.17;100.00;97536.91;5056253;28;20192;-73
2023/01/20 01:49:13;;;;;;;7.80;6.73;;;;;;;0.22;100.00;97533.78;5055825;28;20201;-72
2023/01/20 01:51:59;;;;;;;11.33;7.00;;;;;;;0.24;100.00;97536.06;5054593;28;20294;-73
2023/01/20 01:54:29;;;;;;;10.23;7.33;;;;;;;0.32;100.00;97531.81;5055764;28;20559;-72
2023/01/20 01:56:56;;;;;;;8.87;7.70;;;;;;;0.35;100.00;97539.31;5055688;28;20198;-72
2023/01/20 01:59:22;;;;;;;9.90;7.60;;;;;;;0.38;100.00;97532.75;5054139;28;20687;-72
2023/01/20 02:01:51;;;;;;;10.00;7.43;;;;;;;0.40;100.00;97537.00;5055486;28;20225;-72
2023/01/20 02:04:20;;;;;;;8.33;7.47;;;;;;;0.42;100.00;97543.72;5055431;28;20238;-73
2023/01/20 02:06:51;;;;;;;8.03;7.23;;;;;;;0.45;100.00;97540.72;5053892;28;20696;-72
2023/01/20 02:09:18;;;;;;;9.53;7.43;;;;;;;0.50;100.00;97542.84;5054021;28;20197;-73
2023/01/20 02:11:49;;;;;;;12.07;8.43;;;;;;;0.50;100.00;97543.69;5055093;28;20316;-72
2023/01/20 02:14:24;;;;;;;13.03;9.17;;;;;;;0.47;100.00;97550.03;5055317;28;20196;-72
2023/01/20 02:17:20;;;;;;;10.33;8.53;;;;;;;0.47;100.00;97544.81;5053842;28;20189;-72
2023/01/20 02:19:49;;;;;;;9.77;7.23;;;;;;;0.42;100.00;97555.94;5047131;28;20208;-72
2023/01/20 02:22:28;;;;;;;10.63;7.83;;;;;;;0.38;100.00;97551.03;5054988;28;20225;-72
2023/01/20 02:25:12;;;;;;;9.80;7.10;;;;;;;0.38;100.00;97552.88;5054881;28;20189;-72
2023/01/20 02:28:13;;;;;;;9.63;6.90;;;;;;;0.27;100.00;97558.44;5055141;28;20197;-72
2023/01/20 02:30:56;;;;;;;9.47;7.70;;;;;;;0.20;100.00;97557.47;5053902;28;20264;-72
2023/01/20 02:33:36;;;;;;;9.37;6.83;;;;;;;0.17;100.00;97557.00;5053634;28;20560;-72
2023/01/20 02:36:08;;;;;;;9.00;6.90;;;;;;;0.12;100.00;97551.47;5054929;28;20193;-72
2023/01/20 02:39:03;;;;;;;11.03;7.10;;;;;;;0.19;100.00;97559.28;5054911;28;20186;-72
2023/01/20 02:41:37;;;;;;;11.87;7.50;;;;;;;0.17;100.00;97563.03;5055007;28;20229;-72
2023/01/20 02:44:25;;;;;;;9.43;7.70;;;;;;;0.26;100.00;97556.81;5054246;28;20249;-72
2023/01/20 02:47:03;;;;;;;9.50;7.23;;;;;;;0.25;100.00;97570.88;5054391;28;20679;-72
2023/01/20 02:49:39;;;;;;;9.73;6.83;;;;;;;0.28;100.00;97564.47;5037402;28;20267;-72
2023/01/20 02:52:16;;;;;;;7.50;6.60;;;;;;;0.27;100.00;97565.47;5054547;28;20235;-72
2023/01/20 02:54:49;;;;;;;10.70;7.30;;;;;;;0.24;100.00;97570.03;5054600;28;20189;-72
2023/01/20 02:57:30;;;;;;;10.27;6.87;;;;;;;0.31;100.00;97577.22;5054919;28;20541;-72
2023/01/20 03:00:03;;;;;;;11.13;7.37;;;;;;;0.15;100.00;97568.41;5053189;28;20185;-72
2023/01/20 03:02:34;;;;;;;11.67;7.50;;;;;;;0.29;100.00;97572.16;5054028;28;20696;-72
2023/01/20 03:05:29;;;;;;;10.83;7.07;;;;;;;0.24;100.00;97580.50;5054067;28;20190;-72
2023/01/20 03:07:59;;;;;;;9.50;6.97;;;;;;;0.27;100.00;97579.34;5053320;28;20216;-72
2023/01/20 03:10:30;;;;;;;7.47;6.63;;;;;;;0.26;100.00;97582.16;5054270;28;20209;-72
2023/01/20 03:13:21;;;;;;;7.50;6.50;;;;;;;0.32;100.00;97591.94;5052624;28;20233;-72
2023/01/20 03:16:06;;;;;;;13.43;7.57;;;;;;;0.35;100.00;97591.59;5054471;28;20215;-72
2023/01/20 03:18:34;;;;;;;8.70;7.13;;;;;;;0.30;100.00;97588.69;5053888;28;20212;-72
2023/01/20 03:21:03;;;;;;;8.87;6.70;;;;;;;0.34;100.00;97590.78;5054015;28;20211;-72
2023/01/20 03:23:33;;;;;;;8.07;6.97;;;;;;;0.32;100.00;97590.94;5053957;28;20230;-72
2023/01/20 03:26:02;;;;;;;7.87;6.47;;;;;;;0.33;100.00;97595.19;5053996;28;20205;-72
2023/01/20 03:28:29;;;;;;;8.67;6.80;;;;;;;0.32;100.00;97596.16;5053963;28;20282;-72
2023/01/20 03:30:57;;;;;;;8.40;6.40;;;;;;;0.35;100.00;97596.84;5054375;28;20205;-72
2023/01/20 03:33:24;;;;;;;7.70;6.87;;;;;;;0.35;100.00;97596.84;5052731;28;20217;-72
2023/01/20 03:35:52;;;;;;;7.60;6.80;;;;;;;0.28;100.00;97598.47;5053832;28;20211;-72
2023/01/20 03:38:18;;;;;;;8.47;6.97;;;;;;;0.24;100.00;97601.41;5052534;28;20213;-72
2023/01/20 03:41:07;;;;;;;9.27;7.50;;;;;;;0.31;100.00;97609.41;5053460;28;20212;-72
2023/01/20 03:43:44;;;;;;;7.33;6.50;;;;;;;0.25;100.00;97612.69;5053672;28;20210;-72
2023/01/20 03:46:19;;;;;;;7.63;6.43;;;;;;;0.25;100.00;97610.06;5053949;28;20189;-72
2023/01/20 03:49:13;;;;;;;8.97;6.97;;;;;;;0.23;100.00;97615.47;5053634;28;20197;-72
2023/01/20 03:51:54;;;;;;;8.30;6.43;;;;;;;0.22;100.00;97619.06;5052799;28;20236;-72
2023/01/20 03:54:31;;;;;;;7.40;6.67;;;;;;;0.21;100.00;97615.81;5052517;28;20189;-72
2023/01/20 03:57:08;;;;;;;8.73;7.47;;;;;;;0.21;100.00;97616.59;5053547;28;20200;-73
2023/01/20 03:59:38;;;;;;;9.80;6.87;;;;;;;0.19;100.00;97629.03;5053600;28;20200;-72
2023/01/20 04:02:07;;;;;;;9.63;7.70;;;;;;;0.35;100.00;97623.78;5053483;28;20225;-72
2023/01/20 04:04:38;;;;;;;9.03;7.50;;;;;;;0.30;100.00;97633.91;5053281;28;20586;-71
2023/01/20 04:07:06;;;;;;;9.90;7.30;;;;;;;0.20;100.00;97625.44;5052157;28;20201;-72
2023/01/20 04:09:37;;;;;;;7.47;6.67;;;;;;;0.27;100.00;97628.22;5053264;28;20564;-72
2023/01/20 04:12:04;;;;;;;9.17;7.03;;;;;;;0.22;100.00;97623.47;5052819;28;20233;-72
2023/01/20 04:14:30;;;;;;;8.37;7.57;;;;;;;0.17;100.00;97624.97;5053426;28;20208;-72
2023/01/20 04:16:58;;;;;;;8.50;7.20;;;;;;;0.08;100.00;97624.97;5053284;28;20205;-72
2023/01/20 04:19:26;;;;;;;9.37;7.93;;;;;;;0.12;100.00;97630.66;5051814;28;20205;-73
2023/01/20 04:22:02;;;;;;;7.53;6.77;;;;;;;0.12;100.00;97632.47;5052909;28;20228;-72
2023/01/20 04:24:40;;;;;;;9.37;7.33;;;;;;;0.06;100.00;97634.75;5053024;28;20213;-72
2023/01/20 04:27:06;;;;;;;8.30;7.30;;;;;;;-0.01;100.00;97648.63;5052560;28;20196;-73
2023/01/20 04:29:33;;;;;;;8.70;7.30;;;;;;;-0.08;100.00;97640.63;5054766;28;20205;-72
2023/01/20 04:32:04;;;;;;;10.47;7.17;;;;;;;-0.02;100.00;97640.00;5056928;28;20229;-72
2023/01/20 04:34:30;;;;;;;9.10;7.50;;;;;;;-0.06;100.00;97641.28;5056665;28;20637;-72
2023/01/20 04:36:56;;;;;;;8.87;7.37;;;;;;;-0.06;100.00;97646.53;5056988;28;20205;-72
2023/01/20 04:39:23;;;;;;;10.80;7.77;;;;;;;-0.03;100.00;97648.78;5056908;28;20220;-72
2023/01/20 04:41:49;;;;;;;9.80;8.03;;;;;;;0.01;100.00;97650.09;5057062;28;20606;-72
2023/01/20 04:44:15;;;;;;;7.57;6.77;;;;;;;0.03;100.00;97655.16;5056771;28;20228;-72
2023/01/20 04:46:42;;;;;;;11.20;7.50;;;;;;;0.03;100.00;97656.00;5056350;28;20209;-72
2023/01/20 04:49:09;;;;;;;8.50;7.70;;;;;;;0.05;100.00;97659.25;5056567;28;20665;-72
2023/01/20 04:51:36;;;;;;;8.70;7.20;;;;;;;0.03;100.00;97660.38;5056741;28;20312;-72
2023/01/20 04:54:02;;;;;;;10.17;7.93;;;;;;;0.04;100.00;97667.25;5056653;28;20208;-72
2023/01/20 04:56:28;;;;;;;8.33;7.37;;;;;;;0.08;100.00;97672.97;5056724;28;20206;-72
2023/01/20 04:58:55;;;;;;;11.13;7.30;;;;;;;0.09;100.00;97678.03;5056521;28;20201;-72
2023/01/20 05:01:21;;;;;;;10.37;7.23;;;;;;;0.11;100.00;97686.53;5056413;28;20221;-72
2023/01/20 05:03:48;;;;;;;7.97;7.17;;;;;;;0.10;100.00;97682.28;5056252;28;20233;-72
2023/01/20 05:06:14;;;;;;;8.23;6.73;;;;;;;0.10;100.00;97688.31;5056081;28;20205;-72
2023/01/20 05:08:41;;;;;;;8.23;7.10;;;;;;;0.02;100.00;97690.13;5056480;28;20206;-72
2023/01/20 05:11:08;;;;;;;10.43;7.17;;;;;;;0.08;100.00;97694.69;5055983;28;20213;-72
2023/01/20 05:13:37;;;;;;;8.70;7.80;;;;;;;0.08;100.00;97704.34;5056170;28;20213;-72
2023/01/20 05:16:08;;;;;;;8.43;7.53;;;;;;;0.18;100.00;97704.00;5055957;28;20236;-72
2023/01/20 05:18:34;;;;;;;8.10;6.90;;;;;;;0.15;100.00;97704.31;5056690;28;20212;-72
2023/01/20 05:21:01;;;;;;;8.77;7.33;;;;;;;0.12;100.00;97706.44;5056104;28;20205;-72
2023/01/20 05:23:27;;;;;;;8.63;6.70;;;;;;;0.08;100.00;97712.19;5055974;28;20236;-72
2023/01/20 05:25:54;;;;;;;12.23;7.10;;;;;;;0.03;100.00;97716.09;5056060;28;20212;-72
2023/01/20 05:28:20;;;;;;;10.20;7.60;;;;;;;0.13;100.00;97712.50;5056036;28;20219;-72
2023/01/20 05:30:47;;;;;;;7.73;6.90;;;;;;;0.04;100.00;97720.34;5055675;28;20205;-72
2023/01/20 05:33:14;;;;;;;9.57;7.07;;;;;;;0.07;100.00;97727.03;5055744;28;20567;-72
2023/01/20 05:35:40;;;;;;;8.83;6.63;;;;;;;0.10;100.00;97724.91;5055823;28;20212;-72
2023/01/20 05:38:07;;;;;;;9.10;6.13;;;;;;;0.22;100.00;97723.63;5055719;28;20231;-73
2023/01/20 05:40:33;;;;;;;10.00;6.63;;;;;;;0.17;100.00;97727.69;5055182;28;20201;-72
2023/01/20 05:43:01;;;;;;;9.00;6.67;;;;;;;0.20;100.00;97735.22;5055200;28;20225;-73
2023/01/20 05:45:28;;;;;;;7.80;6.50;;;;;;;0.23;100.00;97734.91;5055401;28;20205;-73
2023/01/20 05:47:56;;;;;;;10.03;7.00;;;;;;;0.21;100.00;97736.03;5055381;28;20206;-73
2023/01/20 05:50:23;;;;;;;9.53;7.27;;;;;;;0.18;100.00;97727.53;5055528;28;20295;-73
2023/01/20 05:52:50;;;;;;;8.13;6.53;;;;;;;0.15;100.00;97743.53;5055026;28;20704;-73
2023/01/20 05:55:16;;;;;;;9.97;7.43;;;;;;;0.10;100.00;97737.16;5055323;28;20208;-73
2023/01/20 05:57:42;;;;;;;10.20;7.10;;;;;;;0.04;100.00;97743.84;5054844;28;20212;-73
2023/01/20 06:00:10;;;;;;;13.47;7.70;;;;;;;-0.02;100.00;97747.13;5055111;28;20551;-73
2023/01/20 06:02:36;;;;;;;8.63;7.70;;;;;;;0.01;100.00;97752.00;5055192;28;20225;-73
2023/01/20 06:05:02;;;;;;;10.53;7.80;;;;;;;-0.01;100.00;97746.13;5054383;28;20224;-73
2023/01/20 06:07:29;;;;;;;11.87;7.87;;;;;;;0.00;100.00;97757.41;5054877;28;20206;-73
2023/01/20 06:09:57;;;;;;;8.67;7.13;;;;;;;0.04;100.00;97756.91;5055102;28;20211;-73
2023/01/20 06:12:24;;;;;;;10.97;7.37;;;;;;;0.02;100.00;97760.66;5054542;28;20259;-73
2023/01/20 06:14:50;;;;;;;8.03;6.87;;;;;;;0.09;100.00;97759.88;5054732;28;20201;-73
2023/01/20 06:17:17;;;;;;;9.07;6.90;;;;;;;0.21;100.00;97756.97;5054133;28;20205;-73
2023/01/20 06:19:43;;;;;;;8.27;5.83;;;;;;;0.19;100.00;97768.38;5054259;28;20231;-73
2023/01/20 06:22:13;;;;;;;8.63;6.90;;;;;;;0.11;100.00;97762.31;5054447;28;20231;-73
2023/01/20 06:24:40;;;;;;;11.53;6.53;;;;;;;0.13;100.00;97770.00;5054023;28;20699;-73
2023/01/20 06:27:06;;;;;;;9.43;6.70;;;;;;;0.13;100.00;97766.41;5054512;28;20212;-73
2023/01/20 06:29:33;;;;;;;11.53;6.60;;;;;;;0.15;100.00;97771.47;5054183;28;20212;-73
2023/01/20 06:31:59;;;;;;;8.40;6.73;;;;;;;0.17;100.00;97771.31;5054179;28;20248;-73
2023/01/20 06:34:25;;;;;;;7.37;6.10;;;;;;;0.11;100.00;97778.00;5054265;28;20236;-73
2023/01/20 06:36:52;;;;;;;7.93;6.60;;;;;;;0.10;100.00;97779.78;5053788;28;20219;-73
2023/01/20 06:39:18;;;;;;;8.47;6.47;;;;;;;0.14;100.00;97793.38;5053684;28;20213;-73
2023/01/20 06:41:45;;;;;;;9.77;7.17;;;;;;;0.17;100.00;97787.81;5053986;28;20595;-73
2023/01/20 06:44:11;;;;;;;9.03;6.87;;;;;;;0.13;100.00;97793.53;5054182;28;20221;-73
2023/01/20 06:46:38;;;;;;;8.93;6.70;;;;;;;0.17;100.00;97788.63;5053712;28;20228;-72
2023/01/20 06:49:04;;;;;;;7.73;6.37;;;;;;;0.08;100.00;97799.22;5053561;28;20231;-73
2023/01/20 06:51:32;;;;;;;7.47;6.70;;;;;;;0.07;100.00;97802.81;5052355;28;20222;-71
2023/01/20 06:53:58;;;;;;;8.37;6.90;;;;;;;0.03;100.00;97804.94;5054019;28;20255;-73
2023/01/20 06:56:25;;;;;;;8.80;7.23;;;;;;;0.12;100.00;97812.81;5054690;28;20541;-73
2023/01/20 06:58:51;;;;;;;7.07;6.37;;;;;;;0.13;100.00;97819.66;5053585;28;20213;-73
2023/01/20 07:01:26;;;;;;;10.60;6.70;;;;;;;0.13;100.00;97822.28;5053922;28;20236;-73
2023/01/20 07:03:53;;;;;;;8.80;6.77;;;;;;;0.08;100.00;97827.97;5053791;28;20695;-73
2023/01/20 07:06:28;;;;;;;7.90;6.77;;;;;;;0.09;100.00;97829.59;5053526;28;20211;-73
2023/01/20 07:08:55;;;;;;;7.70;6.53;;;;;;;0.09;100.00;97833.03;5053452;28;20196;-72
2023/01/20 07:11:21;;;;;;;8.10;6.80;;;;;;;0.13;100.00;97838.75;5053378;28;20231;-72
2023/01/20 07:13:48;;;;;;;6.90;6.20;;;;;;;0.11;100.00;97840.72;5053109;28;20754;-72
2023/01/20 07:16:14;;;;;;;8.33;6.73;;;;;;;0.14;100.00;97848.25;5053616;28;20213;-73
2023/01/20 07:18:41;;;;;;;9.77;6.43;;;;;;;0.10;100.00;97842.50;5053519;28;20224;-73
2023/01/20 07:21:09;;;;;;;10.43;7.17;;;;;;;0.08;100.00;97847.09;5053277;28;20216;-72
2023/01/20 07:23:35;;;;;;;8.70;6.47;;;;;;;0.08;100.00;97850.69;5053305;28;20209;-70
2023/01/20 07:26:06;;;;;;;9.93;6.50;;;;;;;0.16;100.00;97861.97;5053575;28;20205;-72
2023/01/20 07:28:34;;;;;;;10.00;7.27;;;;;;;0.17;100.00;97855.75;5053756;28;20194;-73
2023/01/20 07:31:08;;;;;;;9.87;7.07;;;;;;;0.18;100.00;97870.47;5053323;28;20578;-73
2023/01/20 07:33:35;;;;;;;10.97;6.83;;;;;;;0.22;100.00;97870.00;5053457;28;20193;-72
2023/01/20 07:36:02;;;;;;;9.30;6.63;;;;;;;0.17;100.00;97874.88;5053144;28;20699;-72
2023/01/20 07:38:29;;;;;;;8.23;6.73;;;;;;;0.26;100.00;97885.38;5053143;28;20207;-72
2023/01/20 07:41:04;;;;;;;10.13;6.80;;;;;;;0.21;100.00;97887.66;5053618;28;20201;-73
2023/01/20 07:43:31;;;;;;;8.10;7.07;;;;;;;0.22;100.00;97885.69;5052975;28;20212;-73
2023/01/20 07:45:59;;;;;;;9.00;6.47;;;;;;;0.27;100.00;97889.63;5053293;28;20688;-73
2023/01/20 07:48:25;;;;;;;7.30;6.50;;;;;;;0.31;100.00;97888.31;5053083;28;20215;-73
2023/01/20 07:51:01;;;;;;;8.37;7.20;;;;;;;0.30;100.00;97886.69;5052939;28;20209;-73
2023/01/20 07:53:32;;;;;;;7.40;6.40;;;;;;;0.41;100.00;97902.91;5053714;28;20246;-72
2023/01/20 07:56:11;;;;;;;8.17;6.53;;;;;;;0.42;100.00;97911.56;5053251;28;20190;-72
2023/01/20 07:58:38;;;;;;;9.73;6.70;;;;;;;0.49;100.00;97907.34;5053106;28;20557;-72
2023/01/20 08:01:09;;;;;;;8.57;6.70;;;;;;;0.56;100.00;97905.69;5053164;28;20205;-73
2023/01/20 08:03:35;;;;;;;8.47;6.93;;;;;;;0.54;100.00;97913.69;5052753;28;20683;-73
2023/01/20 08:06:07;;;;;;;7.67;6.47;;;;;;;0.63;100.00;97914.56;5052888;28;20209;-73
2023/01/20 08:08:34;;;;;;;8.10;7.00;;;;;;;0.60;100.00;97920.09;5053118;28;20217;-73
2023/01/20 08:11:01;;;;;;;9.33;7.33;;;;;;;0.70;100.00;97918.97;5053080;28;20208;-73
2023/01/20 08:13:28;;;;;;;8.87;7.30;;;;;;;0.72;100.00;97924.84;5052719;28;20235;-73
2023/01/20 08:15:55;;;;;;;8.63;6.90;;;;;;;0.74;100.00;97922.91;5052971;28;20201;-73
2023/01/20 08:18:22;;;;;;;8.60;7.10;;;;;;;0.74;100.00;97928.16;5052960;28;20208;-73
2023/01/20 08:20:48;;;;;;;8.70;7.10;;;;;;;0.69;100.00;97930.44;5052638;28;20201;-73
2023/01/20 08:23:14;;;;;;;7.63;6.57;;;;;;;0.73;100.00;97933.53;5052794;28;20526;-73
2023/01/20 08:25:41;;;;;;;8.83;7.20;;;;;;;0.67;100.00;97931.56;5052811;28;20228;-73
2023/01/20 08:28:07;;;;;;;9.20;6.80;;;;;;;0.66;100.00;97929.91;5052561;28;20205;-73
2023/01/20 08:30:34;;;;;;;8.70;6.10;;;;;;;0.65;100.00;97936.13;5052688;28;20246;-73
2023/01/20 08:33:00;;;;;;;9.40;7.57;;;;;;;0.66;100.00;97943.81;5052697;28;20221;-73
2023/01/20 08:35:27;;;;;;;7.70;6.63;;;;;;;0.71;100.00;97944.16;5052737;28;20571;-73
2023/01/20 08:37:53;;;;;;;10.83;7.23;;;;;;;0.71;100.00;97945.97;5053068;28;20216;-72
2023/01/20 08:40:20;;;;;;;8.53;6.00;;;;;;;0.76;100.00;97951.53;5052970;28;20209;-73
2023/01/20 08:42:46;;;;;;;8.30;6.37;;;;;;;0.82;100.00;97945.66;5052637;28;20225;-73
2023/01/20 08:45:13;;;;;;;8.37;6.03;;;;;;;0.95;100.00;97961.72;5053178;28;20228;-73
2023/01/20 08:47:44;;;;;;;7.10;6.00;;;;;;;0.96;100.00;97953.72;5052282;28;20672;-73
2023/01/20 08:50:13;;;;;;;7.57;6.07;;;;;;;0.84;100.00;97956.75;5052343;28;20637;-73
2023/01/20 08:52:40;;;;;;;7.10;6.23;;;;;;;0.87;100.00;97962.53;5052338;28;20609;-73
2023/01/20 08:55:08;;;;;;;8.40;5.77;;;;;;;0.99;100.00;97973.50;5053058;28;20490;-73
2023/01/20 08:57:35;;;;;;;6.27;5.63;;;;;;;1.00;100.00;97975.13;5052664;28;20209;-73
2023/01/20 09:00:01;;;;;;;9.83;6.10;;;;;;;1.06;100.00;97985.78;5052669;28;20209;-73
2023/01/20 09:02:28;;;;;;;7.50;5.60;;;;;;;1.10;100.00;97978.41;5052785;28;20225;-73
2023/01/20 09:04:55;;;;;;;6.73;5.70;;;;;;;1.10;100.00;97981.84;5052428;28;20232;-73
2023/01/20 09:07:22;;;;;;;7.83;6.23;;;;;;;1.00;100.00;97982.97;5052357;28;20205;-70
2023/01/20 09:09:49;;;;;;;6.30;5.43;;;;;;;1.02;100.00;97986.25;5052488;28;20313;-73
2023/01/20 09:12:15;;;;;;;8.03;5.60;;;;;;;1.10;100.00;97992.34;5052337;28;20229;-72
2023/01/20 09:14:41;;;;;;;6.73;5.80;;;;;;;1.11;100.00;97991.34;5052791;28;20697;-73
2023/01/20 09:17:08;;;;;;;7.60;6.67;;;;;;;1.21;100.00;98004.28;5055983;28;20209;-73
2023/01/20 09:19:34;;;;;;;7.07;6.07;;;;;;;1.25;100.00;97998.56;5056561;28;20230;-72
2023/01/20 09:22:01;;;;;;;7.97;5.67;;;;;;;1.35;100.00;97999.22;5055726;28;20225;-73
2023/01/20 09:24:27;;;;;;;7.40;5.73;;;;;;;1.40;100.00;97999.53;5055571;28;20240;-72
2023/01/20 09:26:55;;;;;;;7.60;6.50;;;;;;;1.44;100.00;98007.91;5056086;28;20209;-73
2023/01/20 09:29:22;;;;;;;7.17;6.47;;;;;;;1.51;100.00;98011.50;5055791;28;20669;-72
2023/01/20 09:31:56;;;;;;;7.40;5.87;;;;;;;1.47;100.00;98013.63;5055777;28;20221;-73
2023/01/20 09:34:25;;;;;;;8.17;6.70;;;;;;;1.57;100.00;98009.06;5055595;28;20548;-73
2023/01/20 09:36:52;;;;;;;8.63;5.70;;;;;;;1.56;98.82;98009.22;5055651;28;20201;-72
2023/01/20 09:45:23;;;;;;;7.23;5.83;;;;;;;1.54;100.00;98024.28;5055203;28;20204;-72
2023/01/20 09:47:50;;;;;;;8.30;6.33;;;;;;;1.54;99.19;98021.66;5055586;28;20189;-73
2023/01/20 09:53:39;;;;;;;8.10;6.37;;;;;;;1.68;98.76;98029.69;5055657;28;20662;-73
2023/01/20 09:56:15;;;;;;;9.03;5.83;;;;;;;1.71;99.56;98026.72;5055025;28;20181;-73
2023/01/20 09:58:51;;;;;;;7.70;5.57;;;;;;;1.64;99.34;98033.63;5055441;28;20193;-72
2023/01/20 10:01:38;;;;;;;7.03;5.50;;;;;;;1.58;98.28;98029.03;5054109;28;20228;-73
2023/01/20 10:04:38;;;;;;;6.50;4.70;;;;;;;1.64;96.48;98027.56;5055451;28;20212;-72
2023/01/20 10:07:15;;;;;;;6.07;4.70;;;;;;;1.76;97.05;98031.50;5055338;28;20185;-72
2023/01/20 10:09:58;;;;;;;8.50;5.60;;;;;;;1.74;97.63;98029.03;5055674;28;20441;-72
2023/01/20 10:12:40;;;;;;;6.67;5.57;;;;;;;1.58;100.00;98033.47;5054572;28;20838;-72
2023/01/20 10:15:14;;;;;;;5.13;4.47;;;;;;;1.67;99.38;98033.28;5055544;28;20191;-72
2023/01/20 10:18:09;;;;;;;5.47;4.50;;;;;;;1.65;97.11;98034.44;5055203;28;20197;-72
2023/01/20 10:20:44;;;;;;;6.00;4.80;;;;;;;1.63;99.33;98023.31;5055046;28;20197;-72
2023/01/20 10:23:32;;;;;;;6.43;5.00;;;;;;;1.62;98.63;98035.56;5054845;28;20231;-72
2023/01/20 10:26:08;;;;;;;5.70;5.20;;;;;;;1.41;98.57;98029.19;5054107;28;20553;-72
2023/01/20 10:28:41;;;;;;;6.83;5.07;;;;;;;1.45;98.78;98038.34;5054316;28;20189;-72
2023/01/20 10:31:09;;;;;;;6.47;4.97;;;;;;;1.57;100.00;98037.06;5054825;28;20197;-72
2023/01/20 10:33:43;;;;;;;6.37;5.27;;;;;;;1.71;98.25;98042.44;5053395;28;20288;-72
2023/01/20 10:36:28;;;;;;;7.67;4.97;;;;;;;1.84;96.17;98040.16;5054541;28;20187;-72
2023/01/20 10:39:13;;;;;;;6.47;4.53;;;;;;;1.98;94.44;98041.31;5054474;28;20189;-72
2023/01/20 10:41:45;;;;;;;8.37;4.97;;;;;;;1.99;94.98;98037.69;5054510;28;20229;-72
2023/01/20 10:44:14;;;;;;;7.77;5.50;;;;;;;1.91;96.17;98035.91;5054583;28;20234;-72
2023/01/20 10:46:49;;;;;;;8.37;4.10;;;;;;;1.77;93.66;98035.75;5054135;28;20205;-72
2023/01/20 10:49:41;;;;;;;6.37;4.70;;;;;;;1.71;94.97;98036.41;5054529;28;20189;-72
2023/01/20 10:52:26;;;;;;;6.03;4.80;;;;;;;1.64;95.91;98045.91;5053880;28;20233;-72
2023/01/20 10:55:04;;;;;;;7.03;4.80;;;;;;;1.59;96.86;98042.94;5053922;28;20771;-72
2023/01/20 10:57:31;;;;;;;5.97;4.27;;;;;;;1.66;95.57;98036.09;5054223;28;20189;-72
2023/01/20 11:00:05;;;;;;;5.57;4.13;;;;;;;1.63;95.68;98034.59;5054014;28;20227;-72
2023/01/20 11:02:34;;;;;;;5.47;4.13;;;;;;;1.59;95.36;98038.53;5053853;28;20595;-72
2023/01/20 11:05:17;;;;;;;5.33;4.47;;;;;;;1.63;96.02;98036.41;5053739;28;20275;-72
2023/01/20 11:07:46;;;;;;;6.70;4.70;;;;;;;1.59;96.04;98046.41;5053804;28;20185;-72
2023/01/20 11:10:18;;;;;;;5.00;4.17;;;;;;;1.59;96.41;98040.34;5053967;28;20211;-72
2023/01/20 11:12:48;;;;;;;6.23;4.57;;;;;;;1.67;95.88;98045.59;5053414;28;20255;-73
2023/01/20 11:15:22;;;;;;;7.50;4.87;;;;;;;1.66;95.93;98046.56;5053771;28;20196;-72
2023/01/20 11:18:14;;;;;;;5.37;4.00;;;;;;;1.68;95.11;98049.81;5053797;28;20189;-73
2023/01/20 11:20:57;;;;;;;4.80;3.80;;;;;;;1.75;95.52;98053.44;5054009;28;20208;-72
2023/01/20 11:23:31;;;;;;;5.47;4.40;;;;;;;1.82;95.67;98042.13;5053727;28;20509;-72
2023/01/20 11:26:08;;;;;;;6.77;4.33;;;;;;;1.83;93.71;98042.94;5053948;28;20213;-72
2023/01/20 11:28:45;;;;;;;6.73;4.50;;;;;;;1.99;94.33;98049.00;5052374;28;20189;-72
2023/01/20 11:31:11;;;;;;;5.67;4.30;;;;;;;2.17;94.54;98046.19;5053580;28;20602;-72
2023/01/20 11:33:38;;;;;;;6.83;4.43;;;;;;;2.42;93.75;98055.63;5053344;28;20201;-72
2023/01/20 11:36:16;;;;;;;7.53;4.07;;;;;;;2.87;89.58;98050.56;5053307;28;20649;-72
2023/01/20 11:38:47;;;;;;;4.27;3.83;;;;;;;2.68;90.23;98048.34;5053193;28;20205;-72
2023/01/20 11:41:22;;;;;;;6.50;4.10;;;;;;;2.50;92.67;98053.81;5053350;28;20590;-73
2023/01/20 11:43:51;;;;;;;5.43;4.43;;;;;;;2.63;90.32;98055.91;5053344;28;20556;-72
2023/01/20 11:46:24;;;;;;;6.60;4.80;;;;;;;2.67;89.95;98058.00;5053348;28;20232;-72
2023/01/20 11:49:05;;;;;;;7.50;4.00;;;;;;;2.56;84.94;98050.53;5053063;28;20661;-73
2023/01/20 11:51:31;;;;;;;5.60;3.53;;;;;;;2.43;87.66;98047.59;5052774;28;20231;-72
2023/01/20 11:54:13;;;;;;;4.03;3.30;;;;;;;2.36;82.34;98057.16;5053674;28;20208;-72
2023/01/20 11:56:43;;;;;;;6.40;3.47;;;;;;;2.44;81.41;98051.06;5053181;28;20182;-73
2023/01/20 11:59:23;;;;;;;7.43;3.43;;;;;;;2.73;81.35;98053.91;5053165;28;20303;-72